sensor_id;sensor_type;location;lat;lon;timestamp;pressure;altitude;pressure_sealevel;temperature;humidity
61086;BME280;46967;48.876;2.136;2023-02-12T00:01:29;103559.44;;;7.45;93.82
61086;BME280;46967;48.876;2.136;2023-02-12T00:03:54;103555.91;;;7.41;94.32
61086;BME280;46967;48.876;2.136;2023-02-12T00:06:19;103549.78;;;7.38;94.41
61086;BME280;46967;48.876;2.136;2023-02-12T00:08:51;103560.19;;;7.39;94.55
61086;BME280;46967;48.876;2.136;2023-02-12T00:11:20;103556.88;;;7.45;93.74
61086;BME280;46967;48.876;2.136;2023-02-12T00:13:46;103559.22;;;7.37;94.42
61086;BME280;46967;48.876;2.136;2023-02-12T00:16:17;103557.69;;;7.42;93.62
61086;BME280;46967;48.876;2.136;2023-02-12T00:18:43;103548.50;;;7.22;95.03
61086;BME280;46967;48.876;2.136;2023-02-12T00:21:09;103545.41;;;7.35;93.93
61086;BME280;46967;48.876;2.136;2023-02-12T00:23:36;103539.75;;;7.49;93.24
61086;BME280;46967;48.876;2.136;2023-02-12T00:26:08;103537.06;;;7.44;93.39
61086;BME280;46967;48.876;2.136;2023-02-12T00:28:34;103540.38;;;7.40;93.85
61086;BME280;46967;48.876;2.136;2023-02-12T00:31:16;103542.97;;;7.40;93.98
61086;BME280;46967;48.876;2.136;2023-02-12T00:33:42;103542.97;;;7.40;93.66
61086;BME280;46967;48.876;2.136;2023-02-12T00:36:08;103547.91;;;7.32;94.21
61086;BME280;46967;48.876;2.136;2023-02-12T00:38:34;103548.81;;;7.34;93.27
61086;BME280;46967;48.876;2.136;2023-02-12T00:41:00;103547.50;;;7.49;92.41
61086;BME280;46967;48.876;2.136;2023-02-12T00:43:26;103550.56;;;7.35;93.36
61086;BME280;46967;48.876;2.136;2023-02-12T00:45:51;103549.84;;;7.39;93.35
61086;BME280;46967;48.876;2.136;2023-02-12T00:48:16;103544.72;;;7.41;93.08
61086;BME280;46967;48.876;2.136;2023-02-12T00:50:46;103554.75;;;7.30;93.68
61086;BME280;46967;48.876;2.136;2023-02-12T00:53:13;103539.38;;;7.35;93.79
61086;BME280;46967;48.876;2.136;2023-02-12T00:55:39;103539.03;;;7.22;93.99
61086;BME280;46967;48.876;2.136;2023-02-12T00:58:04;103532.19;;;7.24;94.61
61086;BME280;46967;48.876;2.136;2023-02-12T01:00:29;103539.81;;;7.20;94.63
61086;BME280;46967;48.876;2.136;2023-02-12T01:02:55;103535.59;;;7.22;94.07
61086;BME280;46967;48.876;2.136;2023-02-12T01:05:20;103536.22;;;7.15;95.23
61086;BME280;46967;48.876;2.136;2023-02-12T01:07:52;103537.00;;;7.11;95.68
61086;BME280;46967;48.876;2.136;2023-02-12T01:10:19;103537.09;;;7.15;95.90
61086;BME280;46967;48.876;2.136;2023-02-12T01:12:46;103533.78;;;7.19;95.79
61086;BME280;46967;48.876;2.136;2023-02-12T01:15:12;103533.88;;;7.22;95.58
61086;BME280;46967;48.876;2.136;2023-02-12T01:17:38;103529.72;;;7.29;95.23
61086;BME280;46967;48.876;2.136;2023-02-12T01:20:05;103540.25;;;7.35;95.33
61086;BME280;46967;48.876;2.136;2023-02-12T01:22:33;103539.59;;;7.11;96.14
61086;BME280;46967;48.876;2.136;2023-02-12T01:24:59;103531.84;;;7.11;95.90
61086;BME280;46967;48.876;2.136;2023-02-12T01:27:24;103529.72;;;7.29;94.90
61086;BME280;46967;48.876;2.136;2023-02-12T01:29:50;103526.94;;;7.21;94.88
61086;BME280;46967;48.876;2.136;2023-02-12T01:32:15;103533.81;;;7.21;95.10
61086;BME280;46967;48.876;2.136;2023-02-12T01:34:40;103518.41;;;7.24;95.19
61086;BME280;46967;48.876;2.136;2023-02-12T01:37:06;103531.84;;;7.11;96.18
61086;BME280;46967;48.876;2.136;2023-02-12T01:39:31;103530.41;;;7.22;95.57
61086;BME280;46967;48.876;2.136;2023-02-12T01:41:56;103532.09;;;7.21;96.07
61086;BME280;46967;48.876;2.136;2023-02-12T01:44:24;103528.75;;;7.24;96.23
61086;BME280;46967;48.876;2.136;2023-02-12T01:47:01;103532.41;;;7.32;95.45
61086;BME280;46967;48.876;2.136;2023-02-12T01:49:42;103531.31;;;7.24;96.22
61086;BME280;46967;48.876;2.136;2023-02-12T01:54:37;103524.34;;;7.21;96.25
61086;BME280;46967;48.876;2.136;2023-02-12T01:57:04;103538.63;;;7.08;97.25
61086;BME280;46967;48.876;2.136;2023-02-12T01:59:31;103526.81;;;7.17;96.53
61086;BME280;46967;48.876;2.136;2023-02-12T02:01:57;103519.00;;;7.14;97.11
61086;BME280;46967;48.876;2.136;2023-02-12T02:04:26;103522.28;;;7.08;97.28
61086;BME280;46967;48.876;2.136;2023-02-12T02:07:00;103523.00;;;7.04;97.61
61086;BME280;46967;48.876;2.136;2023-02-12T02:09:28;103520.53;;;7.07;97.01
61086;BME280;46967;48.876;2.136;2023-02-12T02:11:54;103532.25;;;6.96;97.47
61086;BME280;46967;48.876;2.136;2023-02-12T02:14:38;103522.88;;;6.99;96.91
61086;BME280;46967;48.876;2.136;2023-02-12T02:17:23;103525.47;;;6.99;96.87
61086;BME280;46967;48.876;2.136;2023-02-12T02:25:52;103531.84;;;6.82;97.74
61086;BME280;46967;48.876;2.136;2023-02-12T02:31:19;103531.31;;;6.92;97.25
61086;BME280;46967;48.876;2.136;2023-02-12T02:33:56;103533.94;;;6.94;97.25
61086;BME280;46967;48.876;2.136;2023-02-12T02:36:40;103531.47;;;6.98;96.15
61086;BME280;46967;48.876;2.136;2023-02-12T02:41:58;103536.72;;;7.01;95.53
61086;BME280;46967;48.876;2.136;2023-02-12T02:44:38;103528.94;;;7.00;94.29
61086;BME280;46967;48.876;2.136;2023-02-12T02:47:09;103529.06;;;7.04;93.66
61086;BME280;46967;48.876;2.136;2023-02-12T02:49:44;103530.59;;;6.98;93.88
61086;BME280;46967;48.876;2.136;2023-02-12T02:52:16;103528.09;;;7.01;93.66
61086;BME280;46967;48.876;2.136;2023-02-12T02:54:50;103520.66;;;7.12;93.03
61086;BME280;46967;48.876;2.136;2023-02-12T02:57:26;103523.44;;;7.19;92.44
61086;BME280;46967;48.876;2.136;2023-02-12T02:59:55;103524.41;;;7.23;92.42
61086;BME280;46967;48.876;2.136;2023-02-12T03:02:24;103518.88;;;7.09;92.40
61086;BME280;46967;48.876;2.136;2023-02-12T03:05:01;103518.19;;;7.16;91.99
61086;BME280;46967;48.876;2.136;2023-02-12T03:07:32;103521.81;;;7.23;91.84
61086;BME280;46967;48.876;2.136;2023-02-12T03:15:14;103503.56;;;7.17;91.23
61086;BME280;46967;48.876;2.136;2023-02-12T03:17:45;103500.16;;;7.18;91.34
61086;BME280;46967;48.876;2.136;2023-02-12T03:20:18;103498.41;;;7.17;91.54
61086;BME280;46967;48.876;2.136;2023-02-12T03:22:57;103497.75;;;7.24;91.12
61086;BME280;46967;48.876;2.136;2023-02-12T03:25:32;103487.53;;;7.29;90.93
61086;BME280;46967;48.876;2.136;2023-02-12T03:28:12;103490.28;;;7.35;90.89
61086;BME280;46967;48.876;2.136;2023-02-12T03:30:51;103491.09;;;7.34;90.94
61086;BME280;46967;48.876;2.136;2023-02-12T03:35:54;103474.91;;;7.39;90.63
61086;BME280;46967;48.876;2.136;2023-02-12T03:38:42;103481.97;;;7.47;90.35
61086;BME280;46967;48.876;2.136;2023-02-12T03:41:19;103471.75;;;7.51;90.05
61086;BME280;46967;48.876;2.136;2023-02-12T03:43:58;103466.59;;;7.51;90.23
61086;BME280;46967;48.876;2.136;2023-02-12T03:49:09;103467.50;;;7.53;90.19
61086;BME280;46967;48.876;2.136;2023-02-12T03:51:40;103465.84;;;7.55;90.18
61086;BME280;46967;48.876;2.136;2023-02-12T03:54:08;103468.41;;;7.55;89.79
61086;BME280;46967;48.876;2.136;2023-02-12T03:56:54;103471.94;;;7.59;89.68
61086;BME280;46967;48.876;2.136;2023-02-12T03:59:22;103470.97;;;7.54;90.07
61086;BME280;46967;48.876;2.136;2023-02-12T04:01:51;103462.41;;;7.56;89.93
61086;BME280;46967;48.876;2.136;2023-02-12T04:04:17;103469.31;;;7.57;89.81
61086;BME280;46967;48.876;2.136;2023-02-12T04:06:45;103466.78;;;7.59;89.75
61086;BME280;46967;48.876;2.136;2023-02-12T04:09:11;103457.88;;;7.48;89.91
61086;BME280;46967;48.876;2.136;2023-02-12T04:17:14;103463.44;;;7.28;90.09
61086;BME280;46967;48.876;2.136;2023-02-12T04:28:09;103474.06;;;7.08;90.85
61086;BME280;46967;48.876;2.136;2023-02-12T04:30:44;103476.91;;;7.18;90.53
61086;BME280;46967;48.876;2.136;2023-02-12T04:33:17;103476.81;;;7.15;90.73
61086;BME280;46967;48.876;2.136;2023-02-12T04:35:54;103477.69;;;7.14;90.42
61086;BME280;46967;48.876;2.136;2023-02-12T04:38:28;103486.25;;;7.13;90.48
61086;BME280;46967;48.876;2.136;2023-02-12T04:40:56;103487.06;;;7.12;90.64
61086;BME280;46967;48.876;2.136;2023-02-12T04:43:31;103484.94;;;7.29;89.65
61086;BME280;46967;48.876;2.136;2023-02-12T04:45:56;103483.72;;;7.14;90.10
61086;BME280;46967;48.876;2.136;2023-02-12T04:48:22;103488.00;;;7.14;90.30
61086;BME280;46967;48.876;2.136;2023-02-12T04:50:47;103488.84;;;7.13;90.27
61086;BME280;46967;48.876;2.136;2023-02-12T04:53:13;103485.13;;;7.03;90.62
61086;BME280;46967;48.876;2.136;2023-02-12T04:55:38;103487.88;;;7.09;90.42
61086;BME280;46967;48.876;2.136;2023-02-12T04:58:04;103487.72;;;7.03;90.54
61086;BME280;46967;48.876;2.136;2023-02-12T05:00:30;103478.34;;;7.06;90.50
61086;BME280;46967;48.876;2.136;2023-02-12T05:02:55;103475.50;;;6.97;90.49
61086;BME280;46967;48.876;2.136;2023-02-12T05:05:21;103479.88;;;7.00;90.42
61086;BME280;46967;48.876;2.136;2023-02-12T05:07:46;103481.59;;;7.01;90.37
61086;BME280;46967;48.876;2.136;2023-02-12T05:10:12;103479.88;;;7.00;90.30
61086;BME280;46967;48.876;2.136;2023-02-12T05:12:37;103480.88;;;7.05;90.27
61086;BME280;46967;48.876;2.136;2023-02-12T05:15:03;103486.25;;;7.13;90.01
61086;BME280;46967;48.876;2.136;2023-02-12T05:17:28;103485.38;;;7.12;89.82
61086;BME280;46967;48.876;2.136;2023-02-12T05:19:53;103479.31;;;7.12;89.72
61086;BME280;46967;48.876;2.136;2023-02-12T05:22:19;103475.63;;;7.02;90.49
61086;BME280;46967;48.876;2.136;2023-02-12T05:24:44;103480.84;;;7.03;90.39
61086;BME280;46967;48.876;2.136;2023-02-12T05:27:10;103472.09;;;6.98;90.29
61086;BME280;46967;48.876;2.136;2023-02-12T05:29:35;103473.22;;;7.08;89.27
61086;BME280;46967;48.876;2.136;2023-02-12T05:32:01;103470.75;;;7.13;88.57
61086;BME280;46967;48.876;2.136;2023-02-12T05:34:27;103477.00;;;6.89;89.59
61086;BME280;46967;48.876;2.136;2023-02-12T05:36:52;103468.28;;;6.85;89.69
61086;BME280;46967;48.876;2.136;2023-02-12T05:39:18;103465.66;;;6.84;90.14
61086;BME280;46967;48.876;2.136;2023-02-12T05:41:43;103467.69;;;6.96;89.64
61086;BME280;46967;48.876;2.136;2023-02-12T05:44:09;103476.16;;;6.90;90.25
61086;BME280;46967;48.876;2.136;2023-02-12T05:46:36;103472.09;;;6.98;89.70
61086;BME280;46967;48.876;2.136;2023-02-12T05:49:02;103471.13;;;6.95;90.46
61086;BME280;46967;48.876;2.136;2023-02-12T05:51:27;103467.84;;;7.00;90.00
61086;BME280;46967;48.876;2.136;2023-02-12T05:53:57;103460.16;;;7.03;89.93
61086;BME280;46967;48.876;2.136;2023-02-12T05:56:29;103461.22;;;7.10;89.59
61086;BME280;46967;48.876;2.136;2023-02-12T05:58:57;103458.50;;;7.05;90.20
61086;BME280;46967;48.876;2.136;2023-02-12T06:01:30;103459.66;;;7.17;89.51
61086;BME280;46967;48.876;2.136;2023-02-12T06:03:57;103462.19;;;7.14;89.75
61086;BME280;46967;48.876;2.136;2023-02-12T06:06:24;103456.75;;;7.04;89.97
61086;BME280;46967;48.876;2.136;2023-02-12T06:08:50;103467.31;;;7.12;90.03
61086;BME280;46967;48.876;2.136;2023-02-12T06:11:16;103464.88;;;7.18;89.81
61086;BME280;46967;48.876;2.136;2023-02-12T06:13:43;103461.38;;;7.16;89.99
61086;BME280;46967;48.876;2.136;2023-02-12T06:16:19;103462.84;;;7.06;90.38
61086;BME280;46967;48.876;2.136;2023-02-12T06:18:46;103461.03;;;7.04;90.48
61086;BME280;46967;48.876;2.136;2023-02-12T06:21:12;103456.81;;;7.06;90.00
61086;BME280;46967;48.876;2.136;2023-02-12T06:23:37;103448.91;;;7.00;90.46
61086;BME280;46967;48.876;2.136;2023-02-12T06:26:03;103457.59;;;7.03;90.37
61086;BME280;46967;48.876;2.136;2023-02-12T06:28:28;103461.84;;;7.01;90.29
61086;BME280;46967;48.876;2.136;2023-02-12T06:30:54;103452.34;;;7.00;90.33
61086;BME280;46967;48.876;2.136;2023-02-12T06:33:19;103449.06;;;7.06;90.03
61086;BME280;46967;48.876;2.136;2023-02-12T06:35:44;103458.25;;;6.96;90.28
61086;BME280;46967;48.876;2.136;2023-02-12T06:38:10;103453.34;;;7.05;89.99
61086;BME280;46967;48.876;2.136;2023-02-12T06:40:35;103452.25;;;6.97;90.19
61086;BME280;46967;48.876;2.136;2023-02-12T06:43:01;103459.25;;;7.01;90.03
61086;BME280;46967;48.876;2.136;2023-02-12T06:45:26;103462.88;;;7.08;89.62
61086;BME280;46967;48.876;2.136;2023-02-12T06:47:51;103461.97;;;7.06;89.80
61086;BME280;46967;48.876;2.136;2023-02-12T06:50:17;103458.75;;;7.15;89.36
61086;BME280;46967;48.876;2.136;2023-02-12T06:52:43;103466.44;;;7.13;89.26
61086;BME280;46967;48.876;2.136;2023-02-12T06:55:08;103461.38;;;7.16;89.06
61086;BME280;46967;48.876;2.136;2023-02-12T06:57:33;103463.56;;;7.02;89.83
61086;BME280;46967;48.876;2.136;2023-02-12T06:59:59;103471.19;;;6.98;89.97
61086;BME280;46967;48.876;2.136;2023-02-12T07:02:24;103474.81;;;7.03;89.58
61086;BME280;46967;48.876;2.136;2023-02-12T07:04:49;103474.94;;;7.07;89.49
61086;BME280;46967;48.876;2.136;2023-02-12T07:07:15;103472.19;;;7.01;90.04
61086;BME280;46967;48.876;2.136;2023-02-12T07:09:41;103479.41;;;7.15;89.16
61086;BME280;46967;48.876;2.136;2023-02-12T07:12:06;103478.25;;;7.03;90.08
61086;BME280;46967;48.876;2.136;2023-02-12T07:14:31;103482.69;;;7.07;89.61
61086;BME280;46967;48.876;2.136;2023-02-12T07:16:57;103484.16;;;6.99;90.09
61086;BME280;46967;48.876;2.136;2023-02-12T07:19:23;103484.22;;;7.02;90.07
61086;BME280;46967;48.876;2.136;2023-02-12T07:21:48;103489.44;;;7.04;89.79
61086;BME280;46967;48.876;2.136;2023-02-12T07:24:14;103482.50;;;7.01;90.26
61086;BME280;46967;48.876;2.136;2023-02-12T07:26:40;103490.06;;;6.95;90.85
61086;BME280;46967;48.876;2.136;2023-02-12T07:29:06;103493.66;;;7.00;90.18
61086;BME280;46967;48.876;2.136;2023-02-12T07:31:32;103493.69;;;7.02;90.17
61086;BME280;46967;48.876;2.136;2023-02-12T07:33:59;103497.00;;;6.98;90.48
61086;BME280;46967;48.876;2.136;2023-02-12T07:36:27;103497.09;;;7.01;90.31
61086;BME280;46967;48.876;2.136;2023-02-12T07:38:54;103498.59;;;6.93;90.76
61086;BME280;46967;48.876;2.136;2023-02-12T07:41:21;103502.81;;;6.89;90.73
61086;BME280;46967;48.876;2.136;2023-02-12T07:43:53;103501.22;;;6.94;90.34
61086;BME280;46967;48.876;2.136;2023-02-12T07:46:30;103509.66;;;6.87;90.98
61086;BME280;46967;48.876;2.136;2023-02-12T07:49:00;103507.28;;;6.96;90.22
61086;BME280;46967;48.876;2.136;2023-02-12T07:51:27;103507.28;;;6.96;90.26
61086;BME280;46967;48.876;2.136;2023-02-12T07:53:53;103510.94;;;7.03;90.10
61086;BME280;46967;48.876;2.136;2023-02-12T07:56:24;103499.03;;;7.08;89.85
61086;BME280;46967;48.876;2.136;2023-02-12T07:58:51;103507.59;;;7.07;90.37
61086;BME280;46967;48.876;2.136;2023-02-12T08:01:26;103496.59;;;7.13;89.84
61086;BME280;46967;48.876;2.136;2023-02-12T08:03:52;103500.88;;;7.12;89.83
61086;BME280;46967;48.876;2.136;2023-02-12T08:06:26;103507.81;;;7.15;89.61
61086;BME280;46967;48.876;2.136;2023-02-12T08:08:53;103506.63;;;7.02;89.94
61086;BME280;46967;48.876;2.136;2023-02-12T08:11:20;103507.56;;;7.05;89.77
61086;BME280;46967;48.876;2.136;2023-02-12T08:13:46;103504.13;;;7.05;89.89
61086;BME280;46967;48.876;2.136;2023-02-12T08:16:14;103496.50;;;7.10;89.36
61086;BME280;46967;48.876;2.136;2023-02-12T08:18:39;103507.09;;;7.19;88.95
61086;BME280;46967;48.876;2.136;2023-02-12T08:23:32;103503.66;;;7.20;89.24
61086;BME280;46967;48.876;2.136;2023-02-12T08:28:30;103512.25;;;7.19;89.27
61086;BME280;46967;48.876;2.136;2023-02-12T08:31:02;103513.25;;;7.24;88.99
61086;BME280;46967;48.876;2.136;2023-02-12T08:33:29;103518.53;;;7.29;89.31
61086;BME280;46967;48.876;2.136;2023-02-12T08:36:09;103512.50;;;7.28;88.90
61086;BME280;46967;48.876;2.136;2023-02-12T08:38:36;103515.81;;;7.24;89.16
61086;BME280;46967;48.876;2.136;2023-02-12T08:41:03;103520.16;;;7.25;89.22
61086;BME280;46967;48.876;2.136;2023-02-12T08:43:29;103522.06;;;7.32;88.82
61086;BME280;46967;48.876;2.136;2023-02-12T08:46:00;103521.38;;;7.38;88.84
61086;BME280;46967;48.876;2.136;2023-02-12T08:48:26;103525.94;;;7.48;88.10
61086;BME280;46967;48.876;2.136;2023-02-12T08:50:51;103523.59;;;7.57;87.66
61086;BME280;46967;48.876;2.136;2023-02-12T08:53:16;103514.00;;;7.52;87.68
61086;BME280;46967;48.876;2.136;2023-02-12T08:55:47;103523.22;;;7.43;88.10
61086;BME280;46967;48.876;2.136;2023-02-12T08:58:13;103525.66;;;7.37;88.28
61086;BME280;46967;48.876;2.136;2023-02-12T09:00:39;103524.91;;;7.41;87.94
61086;BME280;46967;48.876;2.136;2023-02-12T09:03:04;103530.94;;;7.42;87.77
61086;BME280;46967;48.876;2.136;2023-02-12T09:05:29;103524.22;;;7.47;87.65
61086;BME280;46967;48.876;2.136;2023-02-12T09:07:54;103521.50;;;7.42;88.15
61086;BME280;46967;48.876;2.136;2023-02-12T09:10:20;103527.13;;;7.61;86.98
61086;BME280;46967;48.876;2.136;2023-02-12T09:12:45;103517.88;;;7.69;86.79
61086;BME280;46967;48.876;2.136;2023-02-12T09:15:11;103524.81;;;7.72;86.59
61086;BME280;46967;48.876;2.136;2023-02-12T09:17:36;103515.97;;;7.62;87.06
61086;BME280;46967;48.876;2.136;2023-02-12T09:20:01;103507.19;;;7.55;86.81
61086;BME280;46967;48.876;2.136;2023-02-12T09:22:27;103511.84;;;7.70;86.30
61086;BME280;46967;48.876;2.136;2023-02-12T09:24:52;103507.28;;;7.58;86.62
61086;BME280;46967;48.876;2.136;2023-02-12T09:27:17;103507.59;;;7.71;86.10
61086;BME280;46967;48.876;2.136;2023-02-12T09:29:42;103516.28;;;7.74;85.87
61086;BME280;46967;48.876;2.136;2023-02-12T09:32:08;103508.44;;;7.71;85.57
61086;BME280;46967;48.876;2.136;2023-02-12T09:34:35;103512.63;;;7.66;85.15
61086;BME280;46967;48.876;2.136;2023-02-12T09:37:00;103503.56;;;7.82;84.36
61086;BME280;46967;48.876;2.136;2023-02-12T09:39:26;103497.38;;;7.77;84.44
61086;BME280;46967;48.876;2.136;2023-02-12T09:47:43;103504.94;;;8.04;84.04
61086;BME280;46967;48.876;2.136;2023-02-12T09:52:57;103500.25;;;7.89;84.22
61086;BME280;46967;48.876;2.136;2023-02-12T09:55:28;103498.53;;;7.88;84.51
61086;BME280;46967;48.876;2.136;2023-02-12T09:57:54;103505.25;;;8.18;83.23
61086;BME280;46967;48.876;2.136;2023-02-12T10:00:29;103504.00;;;8.02;84.02
61086;BME280;46967;48.876;2.136;2023-02-12T10:02:59;103510.06;;;8.01;83.88
61086;BME280;46967;48.876;2.136;2023-02-12T10:05:33;103504.94;;;8.04;84.10
61086;BME280;46967;48.876;2.136;2023-02-12T10:27:40;103496.44;;;8.46;82.91
61086;BME280;46967;48.876;2.136;2023-02-12T10:30:16;103496.25;;;8.40;83.60
61086;BME280;46967;48.876;2.136;2023-02-12T10:32:44;103501.53;;;8.43;82.94
61086;BME280;46967;48.876;2.136;2023-02-12T10:35:16;103503.28;;;8.44;83.12
61086;BME280;46967;48.876;2.136;2023-02-12T10:40:22;103493.28;;;8.60;81.77
61086;BME280;46967;48.876;2.136;2023-02-12T10:42:52;103498.69;;;8.72;81.04
61086;BME280;46967;48.876;2.136;2023-02-12T10:45:24;103500.25;;;8.64;80.94
61086;BME280;46967;48.876;2.136;2023-02-12T10:47:53;103506.38;;;8.67;81.48
61086;BME280;46967;48.876;2.136;2023-02-12T10:50:36;103495.16;;;8.67;81.87
61086;BME280;46967;48.876;2.136;2023-02-12T10:53:03;103490.28;;;8.82;81.14
61086;BME280;46967;48.876;2.136;2023-02-12T10:55:30;103504.88;;;8.77;80.89
61086;BME280;46967;48.876;2.136;2023-02-12T10:57:57;103488.56;;;8.83;79.98
61086;BME280;46967;48.876;2.136;2023-02-12T11:00:35;103486.88;;;8.83;80.12
61086;BME280;46967;48.876;2.136;2023-02-12T11:05:38;103490.25;;;8.81;80.78
61086;BME280;46967;48.876;2.136;2023-02-12T11:08:04;103494.41;;;8.73;80.63
61086;BME280;46967;48.876;2.136;2023-02-12T11:10:40;103486.00;;;8.84;79.89
61086;BME280;46967;48.876;2.136;2023-02-12T11:13:22;103477.53;;;8.92;79.74
61086;BME280;46967;48.876;2.136;2023-02-12T11:15:49;103478.56;;;9.01;79.57
61086;BME280;46967;48.876;2.136;2023-02-12T11:18:22;103472.50;;;8.99;78.90
61086;BME280;46967;48.876;2.136;2023-02-12T11:21:00;103473.44;;;9.03;78.47
61086;BME280;46967;48.876;2.136;2023-02-12T11:28:34;103468.00;;;8.91;78.34
61086;BME280;46967;48.876;2.136;2023-02-12T11:33:37;103458.53;;;8.93;79.40
61086;BME280;46967;48.876;2.136;2023-02-12T11:36:22;103460.41;;;9.00;79.42
61086;BME280;46967;48.876;2.136;2023-02-12T11:38:52;103451.63;;;8.92;78.85
61086;BME280;46967;48.876;2.136;2023-02-12T11:41:26;103452.78;;;9.07;78.50
61086;BME280;46967;48.876;2.136;2023-02-12T11:43:55;103444.03;;;9.01;78.60
61086;BME280;46967;48.876;2.136;2023-02-12T11:46:23;103447.53;;;9.03;78.73
61086;BME280;46967;48.876;2.136;2023-02-12T11:48:51;103441.41;;;8.99;79.24
61086;BME280;46967;48.876;2.136;2023-02-12T11:51:20;103440.69;;;9.08;79.06
61086;BME280;46967;48.876;2.136;2023-02-12T11:53:52;103432.31;;;9.21;78.38
61086;BME280;46967;48.876;2.136;2023-02-12T11:56:18;103427.13;;;9.21;77.78
61086;BME280;46967;48.876;2.136;2023-02-12T11:58:46;103420.41;;;9.33;77.80
61086;BME280;46967;48.876;2.136;2023-02-12T12:01:17;103422.19;;;9.37;76.81
61086;BME280;46967;48.876;2.136;2023-02-12T12:04:05;103417.59;;;9.20;77.27
61086;BME280;46967;48.876;2.136;2023-02-12T12:06:33;103417.72;;;9.27;76.84
61086;BME280;46967;48.876;2.136;2023-02-12T12:09:04;103419.38;;;9.24;77.39
61086;BME280;46967;48.876;2.136;2023-02-12T12:11:45;103420.53;;;9.40;76.75
61086;BME280;46967;48.876;2.136;2023-02-12T12:16:53;103414.19;;;9.23;77.30
61086;BME280;46967;48.876;2.136;2023-02-12T12:22:29;103404.97;;;9.40;76.52
61086;BME280;46967;48.876;2.136;2023-02-12T12:30:49;103399.16;;;9.54;75.48
61086;BME280;46967;48.876;2.136;2023-02-12T12:38:47;103386.22;;;9.55;76.72
61086;BME280;46967;48.876;2.136;2023-02-12T12:43:49;103381.44;;;9.85;75.22
61086;BME280;46967;48.876;2.136;2023-02-12T12:46:27;103372.81;;;9.86;75.84
61086;BME280;46967;48.876;2.136;2023-02-12T12:52:02;103371.22;;;9.95;74.31
61086;BME280;46967;48.876;2.136;2023-02-12T12:57:48;103377.81;;;9.72;75.13
61086;BME280;46967;48.876;2.136;2023-02-12T13:00:26;103374.44;;;9.77;74.02
61086;BME280;46967;48.876;2.136;2023-02-12T13:03:03;103368.34;;;9.74;74.99
61086;BME280;46967;48.876;2.136;2023-02-12T13:16:50;103368.22;;;9.65;75.21
61086;BME280;46967;48.876;2.136;2023-02-12T13:22:15;103357.00;;;9.67;74.99
61086;BME280;46967;48.876;2.136;2023-02-12T13:24:50;103355.44;;;9.77;74.62
61086;BME280;46967;48.876;2.136;2023-02-12T13:27:25;103352.00;;;9.81;74.60
61086;BME280;46967;48.876;2.136;2023-02-12T13:30:00;103350.19;;;9.74;74.97
61086;BME280;46967;48.876;2.136;2023-02-12T13:32:32;103347.59;;;9.74;75.21
61086;BME280;46967;48.876;2.136;2023-02-12T13:34:59;103351.13;;;9.79;74.94
61086;BME280;46967;48.876;2.136;2023-02-12T13:37:32;103351.22;;;9.87;74.48
61086;BME280;46967;48.876;2.136;2023-02-12T13:40:02;103344.44;;;9.96;74.39
61086;BME280;46967;48.876;2.136;2023-02-12T13:45:29;103349.59;;;9.95;74.33
61086;BME280;46967;48.876;2.136;2023-02-12T13:56:43;103327.94;;;9.91;74.37
61086;BME280;46967;48.876;2.136;2023-02-12T14:02:02;103324.50;;;9.94;73.87
61086;BME280;46967;48.876;2.136;2023-02-12T14:04:32;103327.88;;;9.87;74.55
61086;BME280;46967;48.876;2.136;2023-02-12T14:06:59;103333.78;;;9.76;74.40
61086;BME280;46967;48.876;2.136;2023-02-12T14:09:33;103333.75;;;9.75;75.10
61086;BME280;46967;48.876;2.136;2023-02-12T14:12:01;103334.66;;;9.75;75.22
61086;BME280;46967;48.876;2.136;2023-02-12T14:14:32;103320.94;;;9.84;74.06
61086;BME280;46967;48.876;2.136;2023-02-12T14:20:25;103320.88;;;9.81;74.14
61086;BME280;46967;48.876;2.136;2023-02-12T14:25:38;103314.91;;;9.87;74.11
61086;BME280;46967;48.876;2.136;2023-02-12T14:36:47;103307.19;;;9.90;73.67
61086;BME280;46967;48.876;2.136;2023-02-12T14:41:55;103302.84;;;9.90;73.85
61086;BME280;46967;48.876;2.136;2023-02-12T14:44:42;103301.94;;;9.85;74.18
61086;BME280;46967;48.876;2.136;2023-02-12T14:49:53;103297.69;;;9.92;73.35
61086;BME280;46967;48.876;2.136;2023-02-12T14:52:25;103292.44;;;9.87;74.13
61086;BME280;46967;48.876;2.136;2023-02-12T14:55:03;103290.81;;;9.95;73.68
61086;BME280;46967;48.876;2.136;2023-02-12T14:57:33;103293.34;;;9.92;73.65
61086;BME280;46967;48.876;2.136;2023-02-12T15:05:41;103280.31;;;9.86;74.06
61086;BME280;46967;48.876;2.136;2023-02-12T15:08:17;103280.38;;;9.92;73.22
61086;BME280;46967;48.876;2.136;2023-02-12T15:10:59;103277.78;;;9.92;74.08
61086;BME280;46967;48.876;2.136;2023-02-12T15:16:06;103268.53;;;10.13;72.44
61086;BME280;46967;48.876;2.136;2023-02-12T15:18:51;103263.28;;;10.10;71.97
61086;BME280;46967;48.876;2.136;2023-02-12T15:21:24;103264.22;;;10.12;72.24
61086;BME280;46967;48.876;2.136;2023-02-12T15:24:04;103264.16;;;10.07;71.96
61086;BME280;46967;48.876;2.136;2023-02-12T15:26:31;103265.78;;;10.02;72.75
61086;BME280;46967;48.876;2.136;2023-02-12T15:28:57;103258.16;;;10.14;71.80
61086;BME280;46967;48.876;2.136;2023-02-12T15:31:28;103257.31;;;10.14;71.81
61086;BME280;46967;48.876;2.136;2023-02-12T15:33:58;103252.84;;;10.04;72.50
61086;BME280;46967;48.876;2.136;2023-02-12T15:36:27;103253.59;;;9.92;72.91
61086;BME280;46967;48.876;2.136;2023-02-12T15:38:59;103257.03;;;9.91;71.36
61086;BME280;46967;48.876;2.136;2023-02-12T15:43:50;103253.59;;;9.93;72.00
61086;BME280;46967;48.876;2.136;2023-02-12T15:46:16;103252.50;;;9.73;72.67
61086;BME280;46967;48.876;2.136;2023-02-12T15:48:42;103249.78;;;9.65;72.91
61086;BME280;46967;48.876;2.136;2023-02-12T15:51:29;103254.28;;;9.77;72.46
61086;BME280;46967;48.876;2.136;2023-02-12T15:53:59;103257.59;;;9.67;73.13
61086;BME280;46967;48.876;2.136;2023-02-12T15:56:28;103259.38;;;9.71;72.69
61086;BME280;46967;48.876;2.136;2023-02-12T15:58:56;103261.16;;;9.76;72.35
61086;BME280;46967;48.876;2.136;2023-02-12T16:01:28;103262.03;;;9.75;72.68